CheckWX is a tool to help pilots better visualize weather data.  It is not intended as a substitute for an official pre-flight weather briefing.

01:22:51 UTC

OERR TAF
Arar Domestic Airport
Arar, Saudi Arabia
TAF OERR 232300Z 2400/2506 07008KT 9999 FEW040

Feb-24@
00:00 UTC

Feb-24 @ 00:00 UTC

Feb-25@
06:00 UTC

Feb-25 @ 06:00 UTC

TAF OERR 232300Z 2400/2506 07008KT 9999 FEW040
Wind
  • 070° at 8 KTS
Cloud Levels
  • Few at 4,000' AGL